Time;durP1;ratioP1;P1;durP2;ratioP2;P2;SDS_P1;SDS_P2;PMS_P1;PMS_P2;Temp;Humidity;BMP_temperature;BMP_pressure;BME280_temperature;BME280_humidity;BME280_pressure;Samples;Min_cycle;Max_cycle;Signal;HPM_P1;HPM_P2
2022/05/25 00:00:32;;;;;;;;;;;;;;;9.54;100.00;101148.53;2612054;36;20331;-58
2022/05/25 00:03:03;;;;;;;;;;;;;;;9.52;100.00;101145.13;2612925;36;19960;-59
2022/05/25 00:05:32;;;;;;;;;;;;;;;9.58;100.00;101155.41;2613992;36;20030;-57
2022/05/25 00:08:00;;;;;;;;;;;;;;;9.49;100.00;101161.50;2611919;54;19977;-57
2022/05/25 00:10:28;;;;;;;;;;;;;;;9.40;100.00;101163.94;2630209;36;20419;-58
2022/05/25 00:12:56;;;;;;;;;;;;;;;9.41;100.00;101157.59;2613664;36;19958;-59
2022/05/25 00:15:25;;;;;;;;;;;;;;;9.46;100.00;101168.81;2613564;36;20454;-57
2022/05/25 00:17:53;;;;;;;;;;;;;;;9.42;100.00;101167.38;2614132;36;20074;-59
2022/05/25 00:20:21;;;;;;;;;;;;;;;9.40;100.00;101174.69;2612852;36;20463;-58
2022/05/25 00:22:50;;;;;;;;;;;;;;;9.45;100.00;101171.63;2613746;31;20478;-59
2022/05/25 00:25:20;;;;;;;;;;;;;;;9.39;100.00;101173.00;2613197;36;19954;-59
2022/05/25 00:27:48;;;;;;;;;;;;;;;9.45;100.00;101167.13;2613947;36;20038;-54
2022/05/25 00:30:16;;;;;;;;;;;;;;;9.43;100.00;101169.06;2613158;36;20533;-56
2022/05/25 00:32:44;;;;;;;;;;;;;;;9.47;100.00;101167.00;2613486;36;20444;-59
2022/05/25 00:35:14;;;;;;;;;;;;;;;9.53;100.00;101179.09;2613784;36;20113;-63
2022/05/25 00:37:44;;;;;;;;;;;;;;;9.51;100.00;101175.66;2612726;36;19953;-60
2022/05/25 00:42:40;;;;;;;;;;;;;;;9.38;100.00;101178.44;2617555;36;19957;-58
2022/05/25 00:45:09;;;;;;;;;;;;;;;9.38;100.00;101176.66;2613633;36;20038;-59
2022/05/25 00:47:37;;;;;;;;;;;;;;;9.32;100.00;101179.81;2613765;36;19950;-59
2022/05/25 00:52:30;;;;;;;;;;;;;;;9.40;100.00;101185.41;2614464;36;19950;-59
2022/05/25 00:55:03;;;;;;;;;;;;;;;9.36;100.00;101188.47;2613367;36;20045;-57
2022/05/25 00:57:34;;;;;;;;;;;;;;;9.42;100.00;101190.69;2614416;36;20414;-59
2022/05/25 01:00:06;;;;;;;;;;;;;;;9.40;100.00;101190.78;2613815;54;20045;-59
2022/05/25 01:02:37;;;;;;;;;;;;;;;9.41;100.00;101197.91;2615342;36;19958;-59
2022/05/25 01:05:06;;;;;;;;;;;;;;;9.39;100.00;101198.97;2612865;36;20073;-59
2022/05/25 01:07:46;;;;;;;;;;;;;;;9.42;100.00;101199.59;2612200;36;19962;-60
2022/05/25 01:10:22;;;;;;;;;;;;;;;9.41;100.00;101197.91;2613254;32;20034;-58
2022/05/25 01:12:57;;;;;;;;;;;;;;;9.45;100.00;101194.00;2615562;36;20069;-60
2022/05/25 01:15:32;;;;;;;;;;;;;;;9.43;100.00;101193.25;2614257;36;19946;-60
2022/05/25 01:18:06;;;;;;;;;;;;;;;9.33;100.00;101194.09;2611944;36;20432;-57
2022/05/25 01:20:40;;;;;;;;;;;;;;;9.38;100.00;101187.38;2613519;36;19969;-59
2022/05/25 01:23:29;;;;;;;;;;;;;;;9.40;100.00;101189.97;2613358;36;19946;-58
2022/05/25 01:26:14;;;;;;;;;;;;;;;9.41;100.00;101203.25;2613193;36;20042;-56
2022/05/25 01:28:48;;;;;;;;;;;;;;;9.32;100.00;101201.31;2613080;36;20096;-58
2022/05/25 01:31:23;;;;;;;;;;;;;;;9.30;100.00;101203.25;2613096;36;19958;-58
2022/05/25 01:33:55;;;;;;;;;;;;;;;9.26;100.00;101194.56;2613595;36;20552;-57
2022/05/25 01:36:26;;;;;;;;;;;;;;;9.32;100.00;101195.94;2613647;36;19967;-58
2022/05/25 01:38:57;;;;;;;;;;;;;;;9.32;100.00;101198.63;2617037;36;20503;-59
2022/05/25 01:41:30;;;;;;;;;;;;;;;9.34;100.00;101206.56;2612788;36;19958;-58
2022/05/25 01:44:00;;;;;;;;;;;;;;;9.34;100.00;101202.03;2613066;36;20511;-59
2022/05/25 01:46:33;;;;;;;;;;;;;;;9.34;100.00;101204.72;2611219;31;19997;-59
2022/05/25 01:49:05;;;;;;;;;;;;;;;9.32;100.00;101198.63;2613257;36;19950;-56
2022/05/25 01:51:39;;;;;;;;;;;;;;;9.35;100.00;101205.56;2613959;36;19954;-59
2022/05/25 01:54:10;;;;;;;;;;;;;;;9.29;100.00;101209.59;2612272;31;20387;-55
2022/05/25 01:56:42;;;;;;;;;;;;;;;9.28;100.00;101214.09;2614375;54;20057;-58
2022/05/25 02:04:48;;;;;;;;;;;;;;;9.27;100.00;101228.50;2616577;36;19952;-56
2022/05/25 02:07:25;;;;;;;;;;;;;;;9.26;100.00;101215.19;2613806;36;20037;-59
2022/05/25 02:10:04;;;;;;;;;;;;;;;9.21;100.00;101212.88;2613271;36;20375;-55
2022/05/25 02:12:41;;;;;;;;;;;;;;;9.23;100.00;101220.81;2613830;36;20535;-58
2022/05/25 02:15:22;;;;;;;;;;;;;;;9.18;100.00;101218.47;2613788;36;19955;31
2022/05/25 02:17:57;;;;;;;;;;;;;;;9.17;100.00;101218.59;2613577;54;20024;-59
2022/05/25 02:20:30;;;;;;;;;;;;;;;9.12;100.00;101217.13;2613043;36;19959;-58
2022/05/25 02:23:00;;;;;;;;;;;;;;;9.10;100.00;101219.06;2612675;36;20066;-59
2022/05/25 02:25:30;;;;;;;;;;;;;;;9.08;100.00;101223.72;2612991;47;20038;-56
2022/05/25 02:28:04;;;;;;;;;;;;;;;9.15;100.00;101220.56;2613020;36;19946;-59
2022/05/25 02:30:33;;;;;;;;;;;;;;;9.18;100.00;101223.00;2615068;36;20042;-59
2022/05/25 02:33:15;;;;;;;;;;;;;;;9.20;100.00;101237.16;2613205;47;20034;-59
2022/05/25 02:35:48;;;;;;;;;;;;;;;9.11;100.00;101239.59;2619897;36;19950;-56
2022/05/25 02:38:16;;;;;;;;;;;;;;;9.00;100.00;101230.66;2613199;36;20467;-58
2022/05/25 02:40:44;;;;;;;;;;;;;;;9.07;100.00;101240.78;2651551;36;19954;-57
2022/05/25 02:43:13;;;;;;;;;;;;;;;9.07;100.00;101235.41;2619605;36;20042;-58
2022/05/25 02:45:41;;;;;;;;;;;;;;;9.08;100.00;101234.47;2612842;36;20537;-59
2022/05/25 02:48:12;;;;;;;;;;;;;;;9.11;100.00;101239.59;2612514;36;20002;-59
2022/05/25 02:50:40;;;;;;;;;;;;;;;9.01;100.00;101238.56;2614311;36;20050;-59
2022/05/25 02:53:11;;;;;;;;;;;;;;;9.05;100.00;101234.66;2613670;36;20054;-58
2022/05/25 02:58:13;;;;;;;;;;;;;;;9.04;100.00;101238.34;2615629;31;20419;-58
2022/05/25 03:00:43;;;;;;;;;;;;;;;8.91;100.00;101240.25;2613996;36;20475;-58
2022/05/25 03:03:14;;;;;;;;;;;;;;;8.92;100.00;101244.63;2613837;31;20136;-58
2022/05/25 03:05:43;;;;;;;;;;;;;;;8.95;100.00;101255.13;2613126;36;19961;-58
2022/05/25 03:08:11;;;;;;;;;;;;;;;9.00;100.00;101247.59;2613213;36;20004;-59
2022/05/25 03:10:39;;;;;;;;;;;;;;;9.01;100.00;101249.31;2614178;36;20073;-58
2022/05/25 03:13:08;;;;;;;;;;;;;;;9.00;100.00;101261.03;2613596;36;20069;-61
2022/05/25 03:15:39;;;;;;;;;;;;;;;9.11;100.00;101263.75;2614671;39;20319;-56
2022/05/25 03:18:07;;;;;;;;;;;;;;;9.09;100.00;101256.78;2613846;36;19953;-58
2022/05/25 03:20:38;;;;;;;;;;;;;;;9.04;100.00;101265.19;2612756;36;20415;-58
2022/05/25 03:23:10;;;;;;;;;;;;;;;9.05;100.00;101261.50;2613768;36;20336;-53
2022/05/25 03:25:38;;;;;;;;;;;;;;;9.04;100.00;101264.31;2613205;36;20063;-60
2022/05/25 03:28:06;;;;;;;;;;;;;;;8.97;100.00;101263.94;2612870;36;20030;-61
2022/05/25 03:30:34;;;;;;;;;;;;;;;9.00;100.00;101257.50;2613851;36;19954;-58
2022/05/25 03:33:02;;;;;;;;;;;;;;;9.03;100.00;101260.78;2613572;36;19968;-58
2022/05/25 03:35:34;;;;;;;;;;;;;;;9.09;100.00;101268.38;2613904;54;20098;-59
2022/05/25 03:38:05;;;;;;;;;;;;;;;9.05;100.00;101266.03;2613018;36;20118;-57
2022/05/25 03:40:33;;;;;;;;;;;;;;;9.09;100.00;101268.38;2612017;36;20054;-56
2022/05/25 03:43:01;;;;;;;;;;;;;;;9.08;100.00;101277.41;2613597;36;20058;-59
2022/05/25 03:47:59;;;;;;;;;;;;;;;9.19;100.00;101278.44;2611416;36;19966;-61
2022/05/25 03:53:08;;;;;;;;;;;;;;;9.24;100.00;101273.56;2613958;54;19973;-58
2022/05/25 03:55:41;;;;;;;;;;;;;;;9.23;100.00;101277.19;2614495;31;20390;-56
2022/05/25 03:58:11;;;;;;;;;;;;;;;9.32;100.00;101275.66;2613294;36;19951;-57
2022/05/25 04:03:20;;;;;;;;;;;;;;;9.32;100.00;101278.31;2613065;36;19954;-59
2022/05/25 04:05:48;;;;;;;;;;;;;;;9.30;100.00;101278.44;2614044;36;20481;-57
2022/05/25 04:08:19;;;;;;;;;;;;;;;9.35;100.00;101278.09;2612781;36;20620;-60
2022/05/25 04:10:50;;;;;;;;;;;;;;;9.44;100.00;101272.88;2614251;54;19958;-56
2022/05/25 04:13:21;;;;;;;;;;;;;;;9.39;100.00;101282.25;2613983;36;19958;-59
2022/05/25 04:15:49;;;;;;;;;;;;;;;9.50;100.00;101278.75;2613634;36;19951;-58
2022/05/25 04:18:17;;;;;;;;;;;;;;;9.47;100.00;101278.00;2612832;36;20050;-58
2022/05/25 04:20:45;;;;;;;;;;;;;;;9.62;100.00;101281.34;2614238;36;20455;-58
2022/05/25 04:23:14;;;;;;;;;;;;;;;9.63;100.00;101283.06;2612670;36;19977;-58
2022/05/25 04:25:44;;;;;;;;;;;;;;;9.73;100.00;101283.19;2613837;36;20062;-58
2022/05/25 04:28:12;;;;;;;;;;;;;;;9.69;100.00;101292.47;2612880;36;19957;-58
2022/05/25 04:30:43;;;;;;;;;;;;;;;9.69;100.00;101286.22;2617910;36;20120;-58
2022/05/25 04:35:37;;;;;;;;;;;;;;;9.70;100.00;101294.19;2613251;36;19959;-59
2022/05/25 04:38:08;;;;;;;;;;;;;;;9.79;100.00;101282.72;2618137;36;19974;-58
2022/05/25 04:40:37;;;;;;;;;;;;;;;9.80;100.00;101283.56;2614662;36;20109;-57
2022/05/25 04:43:12;;;;;;;;;;;;;;;9.86;100.00;101292.97;2612128;36;20110;-57
2022/05/25 04:45:41;;;;;;;;;;;;;;;9.94;100.00;101291.41;2613251;36;20454;-58
2022/05/25 04:48:16;;;;;;;;;;;;;;;9.99;100.00;101283.81;2613887;36;19946;-53
2022/05/25 04:50:59;;;;;;;;;;;;;;;10.08;100.00;101271.47;2613241;36;20379;-54
2022/05/25 04:53:27;;;;;;;;;;;;;;;10.08;100.00;101284.91;2614143;54;19954;-62
2022/05/25 04:58:42;;;;;;;;;;;;;;;10.10;100.00;101285.66;2614264;31;19947;-58
2022/05/25 05:01:11;;;;;;;;;;;;;;;10.23;100.00;101290.91;2613389;36;19997;-58
2022/05/25 05:11:23;;;;;;;;;;;;;;;10.49;100.00;101293.34;2617925;36;19983;-58
2022/05/25 05:13:55;;;;;;;;;;;;;;;10.46;100.00;101283.69;2613751;54;19947;-59
2022/05/25 05:16:23;;;;;;;;;;;;;;;10.52;100.00;101291.25;2616020;31;20018;-62
2022/05/25 05:18:51;;;;;;;;;;;;;;;10.64;100.00;101277.78;2611334;36;19946;-59
2022/05/25 05:21:19;;;;;;;;;;;;;;;10.67;100.00;101282.91;2612016;36;20375;-57
2022/05/25 05:23:47;;;;;;;;;;;;;;;10.65;100.00;101283.03;2611325;36;20037;-57
2022/05/25 05:26:16;;;;;;;;;;;;;;;10.63;100.00;101281.44;2612552;36;20463;-58
2022/05/25 05:28:45;;;;;;;;;;;;;;;10.75;100.00;101283.16;2611361;54;20066;-61
2022/05/25 05:34:00;;;;;;;;;;;;;;;10.93;100.00;101278.06;2613357;36;20009;-58
2022/05/25 05:36:29;;;;;;;;;;;;;;;10.99;100.00;101288.31;2609714;36;21275;-60
2022/05/25 05:39:00;;;;;;;;;;;;;;;10.96;100.00;101290.44;2611146;47;19997;-58
2022/05/25 05:41:31;;;;;;;;;;;;;;;11.08;100.00;101286.69;2609161;36;19967;-58
2022/05/25 05:44:00;;;;;;;;;;;;;;;11.13;100.00;101284.47;2610444;36;20043;-57
2022/05/25 05:46:29;;;;;;;;;;;;;;;11.17;100.00;101282.38;2609514;36;20030;-59
2022/05/25 05:48:59;;;;;;;;;;;;;;;11.19;100.00;101286.66;2608740;36;19962;-58
2022/05/25 05:51:27;;;;;;;;;;;;;;;11.30;100.00;101279.50;2609524;36;20034;-58
2022/05/25 05:53:55;;;;;;;;;;;;;;;11.37;100.00;101281.53;2610475;36;19998;-58
2022/05/25 05:56:24;;;;;;;;;;;;;;;11.48;100.00;101283.28;2611065;36;19990;-58
2022/05/25 05:58:51;;;;;;;;;;;;;;;11.46;100.00;101297.91;2611158;47;20058;-59
2022/05/25 06:03:46;;;;;;;;;;;;;;;11.70;100.00;101295.81;2608622;36;20379;-59
2022/05/25 06:06:17;;;;;;;;;;;;;;;11.71;100.00;101299.34;2610978;36;20034;-59
2022/05/25 06:08:48;;;;;;;;;;;;;;;11.77;100.00;101290.72;2611382;36;19950;-65
2022/05/25 06:13:50;;;;;;;;;;;;;;;12.09;100.00;101292.47;2612638;36;20383;-63
2022/05/25 06:21:42;;;;;;;;;;;;;;;12.32;100.00;101289.56;2616054;36;19951;-61
2022/05/25 06:24:10;;;;;;;;;;;;;;;12.51;100.00;101291.47;2613829;36;19957;-62
2022/05/25 06:26:38;;;;;;;;;;;;;;;12.61;100.00;101282.41;2610159;36;20482;-59
2022/05/25 06:29:06;;;;;;;;;;;;;;;12.85;100.00;101294.66;2608798;36;20029;-59
2022/05/25 06:34:07;;;;;;;;;;;;;;;12.95;100.00;101302.78;2610414;36;19985;-60
2022/05/25 06:36:35;;;;;;;;;;;;;;;13.12;100.00;101301.25;2609779;36;20066;-64
2022/05/25 06:39:05;;;;;;;;;;;;;;;13.05;100.00;101303.66;2609010;36;20467;-59
2022/05/25 06:41:33;;;;;;;;;;;;;;;13.23;100.00;101298.38;2609333;36;20034;-60
2022/05/25 06:44:09;;;;;;;;;;;;;;;13.43;100.00;101310.06;2612867;36;19998;-62
2022/05/25 06:46:37;;;;;;;;;;;;;;;13.72;100.00;101316.44;2610336;36;19985;-59
2022/05/25 06:51:43;;;;;;;;;;;;;;;13.40;100.00;101318.47;2609484;36;19946;-62
2022/05/25 06:54:16;;;;;;;;;;;;;;;13.46;100.00;101319.75;2609172;36;19955;-60
2022/05/25 06:59:13;;;;;;;;;;;;;;;13.29;100.00;101324.88;2607933;36;19947;-59
2022/05/25 07:01:42;;;;;;;;;;;;;;;13.40;100.00;101317.63;2610522;36;20038;-63
2022/05/25 07:04:11;;;;;;;;;;;;;;;13.51;100.00;101322.88;2609127;36;20094;-64
2022/05/25 07:06:42;;;;;;;;;;;;;;;13.39;100.00;101316.75;2612198;36;19955;-59
2022/05/25 07:09:12;;;;;;;;;;;;;;;13.49;100.00;101320.31;2611028;31;19946;-59
2022/05/25 07:11:43;;;;;;;;;;;;;;;13.77;100.00;101324.97;2610468;31;20420;-59
2022/05/25 07:19:31;;;;;;;;;;;;;;;14.08;100.00;101313.94;2612007;36;19958;-61
2022/05/25 07:21:59;;;;;;;;;;;;;;;14.41;100.00;101317.06;2611240;36;19985;-59
2022/05/25 07:24:27;;;;;;;;;;;;;;;14.74;100.00;101317.47;2610091;36;20432;-60
2022/05/25 07:26:58;;;;;;;;;;;;;;;14.75;100.00;101319.19;2610005;36;20026;-60
2022/05/25 07:29:26;;;;;;;;;;;;;;;14.61;100.00;101315.97;2611933;36;20086;-60
2022/05/25 07:34:28;;;;;;;;;;;;;;;14.78;100.00;101327.00;2608915;36;20387;-61
2022/05/25 07:36:57;;;;;;;;;;;;;;;14.83;100.00;101325.53;2610529;36;19989;-59
2022/05/25 07:39:27;;;;;;;;;;;;;;;14.96;100.00;101322.47;2609771;36;20047;-63
2022/05/25 07:41:57;;;;;;;;;;;;;;;15.38;100.00;101327.25;2610170;31;19950;-59
2022/05/25 07:44:49;;;;;;;;;;;;;;;15.33;100.00;101321.47;2614626;31;20522;-64
2022/05/25 07:47:17;;;;;;;;;;;;;;;15.54;100.00;101333.84;2613706;36;20444;-61
2022/05/25 07:49:45;;;;;;;;;;;;;;;15.22;100.00;101333.41;2609624;36;20034;-61
2022/05/25 07:54:52;;;;;;;;;;;;;;;15.28;100.00;101321.06;2612846;36;19952;-60
2022/05/25 07:57:20;;;;;;;;;;;;;;;15.48;100.00;101332.59;2612386;54;20424;-63
2022/05/25 07:59:51;;;;;;;;;;;;;;;15.99;100.00;101324.69;2613328;36;20073;-59
2022/05/25 08:07:41;;;;;;;;;;;;;;;15.86;100.00;101316.13;2611725;36;19950;-58
2022/05/25 08:12:37;;;;;;;;;;;;;;;16.22;100.00;101305.13;2610442;36;19954;-58
2022/05/25 08:15:08;;;;;;;;;;;;;;;16.52;100.00;101319.16;2613331;36;19979;-61
2022/05/25 08:17:37;;;;;;;;;;;;;;;15.98;100.00;101320.28;2612521;36;19998;-58
2022/05/25 08:20:05;;;;;;;;;;;;;;;16.20;100.00;101313.44;2612812;36;19946;-60
2022/05/25 08:22:33;;;;;;;;;;;;;;;16.19;100.00;101319.03;2613109;32;19946;-59
2022/05/25 08:25:02;;;;;;;;;;;;;;;15.92;100.00;101327.19;2613098;36;20065;-62
2022/05/25 08:27:31;;;;;;;;;;;;;;;15.82;100.00;101321.00;2613227;36;20520;-59
2022/05/25 08:29:59;;;;;;;;;;;;;;;15.86;100.00;101314.25;2613868;36;20065;-63
2022/05/25 08:32:30;;;;;;;;;;;;;;;16.19;100.00;101311.72;2613261;36;20448;-64
2022/05/25 08:37:37;;;;;;;;;;;;;;;16.80;100.00;101314.34;2612099;36;19957;-60
2022/05/25 08:40:06;;;;;;;;;;;;;;;16.29;100.00;101317.03;2612443;36;19954;-60
2022/05/25 08:42:42;;;;;;;;;;;;;;;16.60;100.00;101322.78;2613557;54;19947;-64
2022/05/25 08:45:11;;;;;;;;;;;;;;;17.23;100.00;101326.00;2615134;36;20466;-59
2022/05/25 08:47:45;;;;;;;;;;;;;;;17.00;100.00;101328.53;2612069;36;20475;-63
2022/05/25 08:50:20;;;;;;;;;;;;;;;16.70;100.00;101322.66;2614598;36;20109;-59
2022/05/25 08:52:49;;;;;;;;;;;;;;;16.17;100.00;101329.22;2621614;31;19951;-62
2022/05/25 08:55:30;;;;;;;;;;;;;;;16.07;100.00;101342.91;2612288;36;19974;-59
2022/05/25 08:58:00;;;;;;;;;;;;;;;16.29;100.00;101334.19;2612683;54;20594;-59
2022/05/25 09:00:28;;;;;;;;;;;;;;;16.75;100.00;101352.03;2612153;36;20054;-62
2022/05/25 09:03:02;;;;;;;;;;;;;;;16.60;100.00;101346.38;2613424;36;19946;-58
2022/05/25 09:05:39;;;;;;;;;;;;;;;16.55;100.00;101351.44;2613555;54;20062;-59
2022/05/25 09:08:13;;;;;;;;;;;;;;;16.48;100.00;101347.72;2611480;36;20058;-65
2022/05/25 09:10:44;;;;;;;;;;;;;;;16.30;100.00;101348.63;2612691;36;19969;-62
2022/05/25 09:13:15;;;;;;;;;;;;;;;15.90;100.00;101350.94;2613260;36;19954;-59
2022/05/25 09:21:05;;;;;;;;;;;;;;;16.00;100.00;101353.53;2612455;54;19954;-59
2022/05/25 09:23:33;;;;;;;;;;;;;;;16.23;100.00;101355.72;2611117;36;19969;-60
2022/05/25 09:26:03;;;;;;;;;;;;;;;16.33;100.00;101355.59;2613054;36;19958;-63
2022/05/25 09:28:34;;;;;;;;;;;;;;;16.76;100.00;101354.59;2612744;36;20030;-62
2022/05/25 09:31:04;;;;;;;;;;;;;;;16.98;100.00;101355.88;2611935;36;19954;-58
2022/05/25 09:33:34;;;;;;;;;;;;;;;17.26;100.00;101361.03;2611449;31;19972;-58
2022/05/25 09:36:09;;;;;;;;;;;;;;;17.34;100.00;101338.41;2612724;31;19992;-59
2022/05/25 09:38:45;;;;;;;;;;;;;;;17.36;100.00;101347.28;2612350;36;20618;-58
2022/05/25 09:41:21;;;;;;;;;;;;;;;18.10;100.00;101349.13;2614650;36;20061;-63
2022/05/25 09:43:54;;;;;;;;;;;;;;;17.16;100.00;101347.56;2612796;36;20062;-59
2022/05/25 09:46:25;;;;;;;;;;;;;;;17.15;100.00;101343.19;2613097;36;19953;-60
2022/05/25 09:48:55;;;;;;;;;;;;;;;17.34;100.00;101354.75;2613299;36;19986;-58
2022/05/25 09:51:31;;;;;;;;;;;;;;;17.32;100.00;101352.19;2612600;36;20597;-59
2022/05/25 09:54:03;;;;;;;;;;;;;;;17.01;100.00;101338.38;2612631;36;20078;-59
2022/05/25 09:56:33;;;;;;;;;;;;;;;17.26;100.00;101342.00;2611346;36;20032;-63
2022/05/25 09:59:04;;;;;;;;;;;;;;;17.52;100.00;101346.44;2611283;36;20070;-58
2022/05/25 10:01:35;;;;;;;;;;;;;;;17.86;100.00;101343.53;2612022;54;19947;-58
2022/05/25 10:04:04;;;;;;;;;;;;;;;18.35;100.00;101336.28;2612504;36;19954;-58
2022/05/25 10:06:49;;;;;;;;;;;;;;;18.29;100.00;101342.44;2611269;31;19975;-58
2022/05/25 10:09:19;;;;;;;;;;;;;;;18.07;100.00;101336.72;2611769;36;19947;-59
2022/05/25 10:11:48;;;;;;;;;;;;;;;17.88;100.00;101339.78;2612572;36;19953;-59
2022/05/25 10:14:21;;;;;;;;;;;;;;;17.58;100.00;101344.88;2612961;36;19946;-58
2022/05/25 10:16:49;;;;;;;;;;;;;;;17.54;100.00;101351.72;2612656;36;19957;-58
2022/05/25 10:19:19;;;;;;;;;;;;;;;17.13;100.00;101353.34;2613583;54;19988;-61
2022/05/25 10:21:54;;;;;;;;;;;;;;;17.57;100.00;101332.31;2612982;36;20503;-59
2022/05/25 10:24:27;;;;;;;;;;;;;;;18.25;100.00;101333.75;2612435;36;19957;-63
2022/05/25 10:26:57;;;;;;;;;;;;;;;18.49;100.00;101319.19;2613472;36;19955;-63
2022/05/25 10:37:45;;;;;;;;;;;;;;;18.46;100.00;101325.00;2612777;36;20330;-59
2022/05/25 10:40:13;;;;;;;;;;;;;;;18.04;100.00;101328.88;2616728;31;19981;-61
2022/05/25 10:42:47;;;;;;;;;;;;;;;17.89;100.00;101327.84;2612053;36;20061;-59
2022/05/25 10:45:18;;;;;;;;;;;;;;;18.11;100.00;101335.34;2611807;36;19947;-60
2022/05/25 10:47:57;;;;;;;;;;;;;;;18.61;100.00;101327.84;2612834;47;19950;-58
2022/05/25 10:50:26;;;;;;;;;;;;;;;18.75;100.00;101323.50;2611877;36;19977;-61
2022/05/25 10:52:58;;;;;;;;;;;;;;;18.03;100.00;101338.94;2612246;36;20452;-59
2022/05/25 10:55:32;;;;;;;;;;;;;;;17.85;100.00;101328.19;2613416;36;20054;-58
2022/05/25 10:58:06;;;;;;;;;;;;;;;17.25;100.00;101326.69;2613136;36;19968;-59
2022/05/25 11:00:39;;;;;;;;;;;;;;;17.05;100.00;101334.31;2611955;36;19946;-59
2022/05/25 11:03:26;;;;;;;;;;;;;;;17.13;100.00;101342.47;2611788;36;19973;-59
2022/05/25 11:08:29;;;;;;;;;;;;;;;16.89;100.00;101337.00;2612349;36;19947;-58
2022/05/25 11:13:33;;;;;;;;;;;;;;;16.85;100.00;101338.31;2616593;36;19969;-62
2022/05/25 11:18:59;;;;;;;;;;;;;;;18.50;100.00;101337.22;2613376;54;19945;-59
2022/05/25 11:24:23;;;;;;;;;;;;;;;18.72;100.00;101337.50;2611509;36;20038;-61
2022/05/25 11:40:37;;;;;;;;;;;;;;;18.40;97.92;101328.41;2614519;36;20069;-59
2022/05/25 11:43:18;;;;;;;;;;;;;;;19.15;100.00;101313.38;2612571;54;20459;-62
2022/05/25 11:48:43;;;;;;;;;;;;;;;19.44;80.70;101320.00;2614968;54;19939;-58
2022/05/25 11:53:46;;;;;;;;;;;;;;;20.05;88.04;101324.56;2613609;36;19970;-58
2022/05/25 12:01:48;;;;;;;;;;;;;;;20.23;86.74;101330.50;2612569;36;20451;-58
2022/05/25 12:06:52;;;;;;;;;;;;;;;19.17;81.58;101330.44;2612786;36;19981;-58
2022/05/25 12:09:28;;;;;;;;;;;;;;;19.78;88.64;101326.88;2614333;47;20058;-61
2022/05/25 12:19:36;;;;;;;;;;;;;;;19.65;81.21;101332.09;2613997;54;19977;-59
2022/05/25 12:22:11;;;;;;;;;;;;;;;19.73;91.55;101330.13;2614155;36;19969;-62
2022/05/25 12:27:23;;;;;;;;;;;;;;;19.92;80.86;101334.25;2613732;54;19954;-58
2022/05/25 12:29:53;;;;;;;;;;;;;;;20.27;70.48;101337.31;2612121;36;20034;-62
2022/05/25 12:34:55;;;;;;;;;;;;;;;20.01;73.21;101325.97;2612167;54;19962;-64
2022/05/25 12:37:29;;;;;;;;;;;;;;;19.36;76.25;101334.56;2615034;31;20750;-59
2022/05/25 12:40:03;;;;;;;;;;;;;;;19.87;74.77;101335.84;2613389;36;20372;-62
2022/05/25 12:42:37;;;;;;;;;;;;;;;20.28;72.71;101327.19;2614645;31;20444;-58
2022/05/25 12:50:44;;;;;;;;;;;;;;;19.88;75.80;101329.34;2614776;36;19946;-58
2022/05/25 12:53:37;;;;;;;;;;;;;;;20.27;78.57;101331.84;2613924;47;19955;-59
2022/05/25 12:56:08;;;;;;;;;;;;;;;20.09;73.69;101332.19;2612422;36;19946;-58
2022/05/25 13:04:15;;;;;;;;;;;;;;;19.93;77.88;101341.44;2614321;36;19974;-59
2022/05/25 13:06:58;;;;;;;;;;;;;;;19.11;74.89;101335.75;2615457;36;19958;-59
2022/05/25 13:09:40;;;;;;;;;;;;;;;18.82;85.54;101343.56;2611425;36;20416;-56
2022/05/25 13:12:23;;;;;;;;;;;;;;;19.11;86.74;101339.34;2613249;31;19966;-57
2022/05/25 13:14:56;;;;;;;;;;;;;;;19.26;78.49;101336.69;2613411;36;20018;-62
2022/05/25 13:17:42;;;;;;;;;;;;;;;19.41;80.79;101332.13;2611513;36;19955;-58
2022/05/25 13:20:15;;;;;;;;;;;;;;;19.46;81.04;101338.91;2611606;36;20066;-61
2022/05/25 13:22:43;;;;;;;;;;;;;;;19.30;84.65;101323.50;2610627;31;19958;-61
2022/05/25 13:25:16;;;;;;;;;;;;;;;19.75;82.31;101330.78;2612210;36;20488;-60
2022/05/25 13:28:02;;;;;;;;;;;;;;;19.39;93.97;101328.72;2613540;36;20462;-58
2022/05/25 13:30:32;;;;;;;;;;;;;;;19.54;86.86;101331.50;2611876;36;19961;-58
2022/05/25 13:33:01;;;;;;;;;;;;;;;19.45;84.83;101332.63;2613168;31;20042;-58
2022/05/25 13:35:46;;;;;;;;;;;;;;;19.18;81.70;101326.66;2611985;36;20054;-58
2022/05/25 13:38:25;;;;;;;;;;;;;;;19.36;86.46;101325.50;2612312;36;20002;-58
2022/05/25 13:43:31;;;;;;;;;;;;;;;18.69;83.00;101326.94;2617503;36;20503;-59
2022/05/25 13:45:59;;;;;;;;;;;;;;;18.23;89.94;101334.94;2613409;31;20425;-57
2022/05/25 13:48:27;;;;;;;;;;;;;;;18.67;95.50;101329.00;2612313;36;20026;-58
2022/05/25 13:50:57;;;;;;;;;;;;;;;18.72;94.84;101326.56;2612247;36;19957;-59
2022/05/25 13:53:32;;;;;;;;;;;;;;;18.16;95.66;101335.66;2611237;36;20037;-60
2022/05/25 13:56:06;;;;;;;;;;;;;;;17.85;100.00;101325.47;2613778;31;20439;-61
2022/05/25 14:01:22;;;;;;;;;;;;;;;18.06;100.00;101328.72;2612302;39;20390;-61
2022/05/25 14:03:53;;;;;;;;;;;;;;;17.93;100.00;101329.25;2613404;39;20552;-58
2022/05/25 14:06:22;;;;;;;;;;;;;;;17.62;100.00;101324.47;2614948;36;19946;-61
2022/05/25 14:17:06;;;;;;;;;;;;;;;17.27;100.00;101326.50;2612617;36;20466;-59
2022/05/25 14:19:42;;;;;;;;;;;;;;;17.43;100.00;101323.81;2613181;36;19943;-59
2022/05/25 14:22:11;;;;;;;;;;;;;;;17.57;100.00;101327.72;2614906;36;20050;-58
2022/05/25 14:27:18;;;;;;;;;;;;;;;16.98;100.00;101322.41;2613548;54;19946;-60
2022/05/25 14:32:37;;;;;;;;;;;;;;;17.93;100.00;101326.50;2612123;36;20341;-63
2022/05/25 14:35:07;;;;;;;;;;;;;;;18.44;100.00;101321.59;2612309;54;19951;-60
2022/05/25 14:37:38;;;;;;;;;;;;;;;18.20;100.00;101317.09;2612306;36;20030;-59
2022/05/25 14:40:08;;;;;;;;;;;;;;;18.16;100.00;101332.94;2613023;36;20645;-63
2022/05/25 14:42:51;;;;;;;;;;;;;;;18.27;100.00;101318.09;2612712;36;20034;-59
2022/05/25 14:45:19;;;;;;;;;;;;;;;18.35;100.00;101328.09;2612912;36;20034;-64
2022/05/25 14:47:51;;;;;;;;;;;;;;;17.94;100.00;101328.22;2612610;36;20036;-60
2022/05/25 14:50:21;;;;;;;;;;;;;;;17.92;100.00;101331.13;2611547;31;20536;-59
2022/05/25 14:52:58;;;;;;;;;;;;;;;17.67;100.00;101335.72;2612802;47;19951;-62
2022/05/25 14:58:10;;;;;;;;;;;;;;;17.99;100.00;101331.25;2615002;31;20542;-57
2022/05/25 15:00:44;;;;;;;;;;;;;;;18.25;100.00;101324.75;2613276;54;19943;-58
2022/05/25 15:03:30;;;;;;;;;;;;;;;18.18;100.00;101328.16;2613051;54;20125;-58
2022/05/25 15:11:25;;;;;;;;;;;;;;;17.59;100.00;101342.00;2611160;54;19951;-61
2022/05/25 15:40:36;;;;;;;;;;;;;;;17.08;100.00;101353.03;2652564;36;19974;-58
2022/05/25 15:43:04;;;;;;;;;;;;;;;16.97;100.00;101354.19;2613778;36;19954;-60
2022/05/25 15:45:33;;;;;;;;;;;;;;;16.94;100.00;101359.09;2614296;54;19938;-60
2022/05/25 15:50:49;;;;;;;;;;;;;;;17.11;100.00;101365.44;2615215;54;19969;-57
2022/05/25 16:01:24;;;;;;;;;;;;;;;17.13;100.00;101369.69;2611260;36;20447;-59
2022/05/25 16:03:54;;;;;;;;;;;;;;;16.89;100.00;101377.78;2612080;36;19954;-61
2022/05/25 16:06:22;;;;;;;;;;;;;;;16.78;100.00;101368.91;2613060;36;20520;-65
2022/05/25 16:14:11;;;;;;;;;;;;;;;16.77;100.00;101369.91;2615636;32;19950;-58
2022/05/25 16:19:13;;;;;;;;;;;;;;;16.92;100.00;101382.91;2613307;54;19985;-62
2022/05/25 16:26:50;;;;;;;;;;;;;;;16.97;100.00;101380.53;2613624;36;20372;-58
2022/05/25 16:29:22;;;;;;;;;;;;;;;16.82;100.00;101375.69;2619593;36;19954;-61
2022/05/25 16:37:15;;;;;;;;;;;;;;;16.87;100.00;101374.34;2613727;36;19946;-59
2022/05/25 16:52:44;;;;;;;;;;;;;;;16.13;100.00;101407.44;2614514;39;20301;-59
2022/05/25 16:55:13;;;;;;;;;;;;;;;16.07;100.00;101400.75;2614751;36;19946;-58
2022/05/25 17:05:45;;;;;;;;;;;;;;;14.69;100.00;101435.31;2614552;39;21147;-59